Time;durP1;ratioP1;P1;durP2;ratioP2;P2;SDS_P1;SDS_P2;PMS_P1;PMS_P2;Temp;Humidity;BMP_temperature;BMP_pressure;BME280_temperature;BME280_humidity;BME280_pressure;Samples;Min_cycle;Max_cycle;Signal;HPM_P1;HPM_P2
2023/12/22 00:01:15;;;;;;;10.77;10.27;;;;;;;;;;5070055;28;20096;-60
2023/12/22 00:03:41;;;;;;;10.98;10.48;;;;;;;;;;5068182;28;20494;-61
2023/12/22 00:06:06;;;;;;;11.25;10.70;;;;;;;;;;5066222;28;20077;-60
2023/12/22 00:08:31;;;;;;;10.73;10.23;;;;;;;;;;5076240;28;20035;-60
2023/12/22 00:10:57;;;;;;;11.35;10.77;;;;;;;;;;5067505;28;20108;-60
2023/12/22 00:13:22;;;;;;;10.55;10.05;;;;;;;;;;5073576;28;20392;-60
2023/12/22 00:15:48;;;;;;;10.57;10.07;;;;;;;;;;5070584;28;20475;-60
2023/12/22 00:18:13;;;;;;;10.80;10.30;;;;;;;;;;5070699;28;20029;-59
2023/12/22 00:20:38;;;;;;;10.70;10.20;;;;;;;;;;5074376;28;20032;-58
2023/12/22 00:23:04;;;;;;;10.80;10.30;;;;;;;;;;5073217;28;20482;-59
2023/12/22 00:25:29;;;;;;;11.15;10.65;;;;;;;;;;5071032;28;20070;-59
2023/12/22 00:27:54;;;;;;;11.05;10.55;;;;;;;;;;5072296;28;20029;-60
2023/12/22 00:30:20;;;;;;;10.57;10.07;;;;;;;;;;5073266;28;20398;-60
2023/12/22 00:32:45;;;;;;;11.45;10.93;;;;;;;;;;5065247;28;20441;-59
2023/12/22 00:35:10;;;;;;;10.88;10.38;;;;;;;;;;5073019;28;20546;-59
2023/12/22 00:37:36;;;;;;;10.95;10.45;;;;;;;;;;5070312;28;20395;-59
2023/12/22 00:40:05;;;;;;;10.93;10.43;;;;;;;;;;5068937;28;20024;-60
2023/12/22 00:42:30;;;;;;;11.18;10.68;;;;;;;;;;5072658;28;20534;-59
2023/12/22 00:44:56;;;;;;;10.90;10.40;;;;;;;;;;5069433;28;20068;-59
2023/12/22 00:47:21;;;;;;;11.10;10.60;;;;;;;;;;5071908;28;20119;-59
2023/12/22 00:49:46;;;;;;;11.15;10.65;;;;;;;;;;5073352;28;20352;-59
2023/12/22 00:52:12;;;;;;;11.10;10.60;;;;;;;;;;5072663;28;20016;-59
2023/12/22 00:54:37;;;;;;;11.65;11.07;;;;;;;;;;5066020;28;20023;-59
2023/12/22 00:57:02;;;;;;;11.50;10.98;;;;;;;;;;5077146;28;20012;-60
2023/12/22 00:59:28;;;;;;;11.30;10.80;;;;;;;;;;5071211;28;20349;-60
2023/12/22 01:01:53;;;;;;;11.30;10.80;;;;;;;;;;5066891;28;20388;-59
2023/12/22 01:04:19;;;;;;;11.43;10.93;;;;;;;;;;5079047;28;20044;-60
2023/12/22 01:06:44;;;;;;;11.05;10.55;;;;;;;;;;5066701;28;20119;-60
2023/12/22 01:09:10;;;;;;;10.80;10.30;;;;;;;;;;5071822;28;20441;-60
2023/12/22 01:11:35;;;;;;;11.10;10.60;;;;;;;;;;5066904;28;20032;-61
2023/12/22 01:14:00;;;;;;;12.07;11.48;;;;;;;;;;5072589;28;20021;-59
2023/12/22 01:16:26;;;;;;;11.68;11.07;;;;;;;;;;5070064;28;20512;-61
2023/12/22 01:18:51;;;;;;;11.07;10.57;;;;;;;;;;5073596;28;20028;-60
2023/12/22 01:21:17;;;;;;;11.18;10.68;;;;;;;;;;5066685;28;20020;-59
2023/12/22 01:23:42;;;;;;;11.18;10.68;;;;;;;;;;5079795;28;20408;-60
2023/12/22 01:26:07;;;;;;;11.80;11.25;;;;;;;;;;5071316;28;20008;-59
2023/12/22 01:28:35;;;;;;;11.50;11.00;;;;;;;;;;5075437;28;20028;-58
2023/12/22 01:31:01;;;;;;;11.48;10.98;;;;;;;;;;5071177;28;20410;-61
2023/12/22 01:33:26;;;;;;;11.25;10.75;;;;;;;;;;5072945;28;20028;-58
2023/12/22 01:35:52;;;;;;;11.05;10.55;;;;;;;;;;5070877;28;20365;-59
2023/12/22 01:38:17;;;;;;;11.73;11.13;;;;;;;;;;5075409;28;20044;-60
2023/12/22 01:40:42;;;;;;;11.35;10.85;;;;;;;;;;5071504;28;20017;-59
2023/12/22 01:43:08;;;;;;;11.32;10.82;;;;;;;;;;5072346;28;20025;-60
2023/12/22 01:45:33;;;;;;;11.60;11.10;;;;;;;;;;5070794;28;20028;-58
2023/12/22 01:47:58;;;;;;;11.60;11.10;;;;;;;;;;5071226;28;20024;-59
2023/12/22 01:50:24;;;;;;;11.50;11.00;;;;;;;;;;5070425;28;20036;-60
2023/12/22 01:52:49;;;;;;;12.38;11.77;;;;;;;;;;5068952;28;20021;-59
2023/12/22 01:55:16;;;;;;;11.20;10.70;;;;;;;;;;5066234;28;20031;-59
2023/12/22 01:57:42;;;;;;;11.77;11.18;;;;;;;;;;5071391;28;20118;-60
2023/12/22 02:00:08;;;;;;;11.23;10.73;;;;;;;;;;5070918;28;20013;-58
2023/12/22 02:02:34;;;;;;;11.35;10.85;;;;;;;;;;5069812;28;20446;-60
2023/12/22 02:04:59;;;;;;;11.30;10.80;;;;;;;;;;5074260;28;20028;-58
2023/12/22 02:07:25;;;;;;;11.25;10.75;;;;;;;;;;5072206;28;20466;-59
2023/12/22 02:09:50;;;;;;;11.57;11.07;;;;;;;;;;5072433;28;20055;-60
2023/12/22 02:12:15;;;;;;;11.40;10.90;;;;;;;;;;5070294;28;20040;-58
2023/12/22 02:14:41;;;;;;;11.10;10.60;;;;;;;;;;5071963;28;20022;-59
2023/12/22 02:17:23;;;;;;;12.00;11.40;;;;;;;;;;5068831;28;20129;-59
2023/12/22 02:19:49;;;;;;;11.15;10.65;;;;;;;;;;5070626;28;20024;-59
2023/12/22 02:22:15;;;;;;;11.40;10.90;;;;;;;;;;5062455;28;20029;-58
2023/12/22 02:24:42;;;;;;;11.50;11.00;;;;;;;;;;5070230;28;20541;-58
2023/12/22 02:27:17;;;;;;;11.60;11.10;;;;;;;;;;5068649;28;20031;-60
2023/12/22 02:29:45;;;;;;;11.63;11.07;;;;;;;;;;5067971;28;20433;-60
2023/12/22 02:32:13;;;;;;;11.10;10.60;;;;;;;;;;5065135;28;20586;-59
2023/12/22 02:34:41;;;;;;;11.40;10.90;;;;;;;;;;5070780;28;20023;-60
2023/12/22 02:37:08;;;;;;;11.82;11.23;;;;;;;;;;5071558;28;20017;-59
2023/12/22 02:39:34;;;;;;;12.18;11.57;;;;;;;;;;5065886;28;20017;-59
2023/12/22 02:41:59;;;;;;;12.07;11.48;;;;;;;;;;5068898;28;20099;-59
2023/12/22 02:44:25;;;;;;;11.85;11.25;;;;;;;;;;5071171;28;20024;-61
2023/12/22 02:46:51;;;;;;;11.32;10.82;;;;;;;;;;5063837;28;20075;-61
2023/12/22 02:49:18;;;;;;;11.40;10.90;;;;;;;;;;5067902;28;20353;-61
2023/12/22 02:51:44;;;;;;;10.95;10.45;;;;;;;;;;5075987;28;20154;-60
2023/12/22 02:54:10;;;;;;;11.93;11.32;;;;;;;;;;5067412;28;20108;-59
2023/12/22 02:56:35;;;;;;;11.10;10.60;;;;;;;;;;5072213;28;20024;-59
2023/12/22 02:59:01;;;;;;;11.30;10.80;;;;;;;;;;5064439;28;20020;-59
2023/12/22 03:01:26;;;;;;;11.60;11.10;;;;;;;;;;5070434;28;20372;-60
2023/12/22 03:03:51;;;;;;;11.20;10.70;;;;;;;;;;5061785;28;20388;-61
2023/12/22 03:06:17;;;;;;;11.07;10.57;;;;;;;;;;5070564;28;20107;-59
2023/12/22 03:08:42;;;;;;;11.90;11.30;;;;;;;;;;5069250;28;20113;-58
2023/12/22 03:11:07;;;;;;;11.35;10.85;;;;;;;;;;5067810;28;20524;-60
2023/12/22 03:13:33;;;;;;;11.38;10.88;;;;;;;;;;5068020;28;20024;-60
2023/12/22 03:15:58;;;;;;;11.43;10.93;;;;;;;;;;5070324;28;20433;-60
2023/12/22 03:18:23;;;;;;;11.48;10.98;;;;;;;;;;5069857;28;20100;-60
2023/12/22 03:20:48;;;;;;;11.90;11.32;;;;;;;;;;5069764;28;20103;-60
2023/12/22 03:23:14;;;;;;;11.30;10.80;;;;;;;;;;5064806;28;20064;-60
2023/12/22 03:25:39;;;;;;;11.80;11.20;;;;;;;;;;5068981;28;20052;-59
2023/12/22 03:28:05;;;;;;;12.27;11.68;;;;;;;;;;5070089;28;20387;-60
2023/12/22 03:30:30;;;;;;;11.68;11.10;;;;;;;;;;5070393;28;20459;-60
2023/12/22 03:32:56;;;;;;;12.02;11.43;;;;;;;;;;5066686;28;20112;-60
2023/12/22 03:35:22;;;;;;;12.07;11.48;;;;;;;;;;5069363;28;20028;-60
2023/12/22 03:37:47;;;;;;;11.50;11.00;;;;;;;;;;5065162;28;20418;-60
2023/12/22 03:40:12;;;;;;;11.80;11.20;;;;;;;;;;5065058;28;20074;-60
2023/12/22 03:42:38;;;;;;;11.23;10.73;;;;;;;;;;5068157;28;20016;-59
2023/12/22 03:45:03;;;;;;;11.30;10.80;;;;;;;;;;5072997;28;20036;-60
2023/12/22 03:47:29;;;;;;;10.98;10.48;;;;;;;;;;5074863;28;20055;-60
2023/12/22 03:49:54;;;;;;;11.38;10.88;;;;;;;;;;5065596;28;20028;-60
2023/12/22 03:52:19;;;;;;;11.40;10.90;;;;;;;;;;5078339;28;20040;-60
2023/12/22 03:54:45;;;;;;;11.75;11.15;;;;;;;;;;5073683;28;20575;-60
2023/12/22 03:57:10;;;;;;;11.70;11.20;;;;;;;;;;5077534;28;20020;-61
2023/12/22 03:59:35;;;;;;;11.95;11.35;;;;;;;;;;5071802;28;20087;-60
2023/12/22 04:02:02;;;;;;;11.93;11.32;;;;;;;;;;5074834;28;20029;-61
2023/12/22 04:04:28;;;;;;;11.63;11.10;;;;;;;;;;5068335;28;20020;-59
2023/12/22 04:06:53;;;;;;;11.73;11.13;;;;;;;;;;5074738;28;20404;-60
2023/12/22 04:09:19;;;;;;;11.43;10.93;;;;;;;;;;5075496;28;20022;-60
2023/12/22 04:11:44;;;;;;;11.50;11.00;;;;;;;;;;5074198;28;20023;-59
2023/12/22 04:14:09;;;;;;;11.60;11.10;;;;;;;;;;5067637;28;20442;-60
2023/12/22 04:16:36;;;;;;;10.73;10.23;;;;;;;;;;5068490;28;20185;-61
2023/12/22 04:19:02;;;;;;;12.20;11.60;;;;;;;;;;5071509;28;20095;-60
2023/12/22 04:21:27;;;;;;;11.20;10.70;;;;;;;;;;5068212;28;20107;-60
2023/12/22 04:23:52;;;;;;;11.48;10.98;;;;;;;;;;5073561;28;20487;-60
2023/12/22 04:26:18;;;;;;;11.98;11.38;;;;;;;;;;5074051;28;20116;-59
2023/12/22 04:28:43;;;;;;;12.20;11.60;;;;;;;;;;5072967;28;20052;-60
2023/12/22 04:31:08;;;;;;;11.82;11.23;;;;;;;;;;5062017;28;20391;-60
2023/12/22 04:33:34;;;;;;;11.55;11.05;;;;;;;;;;5071002;28;20480;-60
2023/12/22 04:35:59;;;;;;;11.40;10.90;;;;;;;;;;5068447;28;20017;-61
2023/12/22 04:38:24;;;;;;;11.18;10.68;;;;;;;;;;5064370;28;20530;-62
2023/12/22 04:40:50;;;;;;;11.35;10.85;;;;;;;;;;5073625;28;20111;-62
2023/12/22 04:43:15;;;;;;;11.23;10.73;;;;;;;;;;5079013;28;20032;-60
2023/12/22 04:45:40;;;;;;;11.10;10.60;;;;;;;;;;5071227;28;20032;-60
2023/12/22 04:48:06;;;;;;;12.38;11.77;;;;;;;;;;5070931;28;20033;-62
2023/12/22 04:50:31;;;;;;;11.60;11.10;;;;;;;;;;5066081;28;20020;-60
2023/12/22 04:52:56;;;;;;;11.50;11.00;;;;;;;;;;5076578;28;20028;-60
2023/12/22 04:55:22;;;;;;;11.80;11.20;;;;;;;;;;5068633;28;20469;-60
2023/12/22 04:57:47;;;;;;;11.73;11.15;;;;;;;;;;5072263;28;20016;-59
2023/12/22 05:00:13;;;;;;;11.40;10.90;;;;;;;;;;5068119;28;20029;-60
2023/12/22 05:02:38;;;;;;;12.00;11.40;;;;;;;;;;5068271;28;20134;-60
2023/12/22 05:05:03;;;;;;;11.65;11.10;;;;;;;;;;5064583;28;20103;-60
2023/12/22 05:07:30;;;;;;;11.32;10.82;;;;;;;;;;5075030;28;20537;-60
2023/12/22 05:09:55;;;;;;;11.25;10.75;;;;;;;;;;5070625;28;20111;-60
2023/12/22 05:12:21;;;;;;;11.25;10.75;;;;;;;;;;5077847;28;20020;-60
2023/12/22 05:14:46;;;;;;;11.35;10.85;;;;;;;;;;5070292;28;20095;-60
2023/12/22 05:17:12;;;;;;;11.75;11.15;;;;;;;;;;5072061;28;20070;-60
2023/12/22 05:19:38;;;;;;;11.40;10.90;;;;;;;;;;5070483;28;20531;-60
2023/12/22 05:22:03;;;;;;;11.85;11.25;;;;;;;;;;5072815;28;20468;-61
2023/12/22 05:24:28;;;;;;;12.38;11.77;;;;;;;;;;5065553;28;20025;-61
2023/12/22 05:26:54;;;;;;;12.05;11.45;;;;;;;;;;5071987;28;20113;-61
2023/12/22 05:29:19;;;;;;;11.38;10.88;;;;;;;;;;5071372;28;20024;-60
2023/12/22 05:31:45;;;;;;;11.30;10.80;;;;;;;;;;5069481;28;20028;-61
2023/12/22 05:34:10;;;;;;;11.07;10.57;;;;;;;;;;5073256;28;20069;-60
2023/12/22 05:36:36;;;;;;;11.50;11.00;;;;;;;;;;5071489;28;20107;-61
2023/12/22 05:39:01;;;;;;;11.32;10.82;;;;;;;;;;5072337;28;20024;-61
2023/12/22 05:41:26;;;;;;;11.93;11.32;;;;;;;;;;5073765;28;20037;-61
2023/12/22 05:43:52;;;;;;;11.80;11.20;;;;;;;;;;5072663;28;20035;-60
2023/12/22 05:46:17;;;;;;;11.88;11.27;;;;;;;;;;5072361;28;20028;-60
2023/12/22 05:48:43;;;;;;;12.10;11.50;;;;;;;;;;5071565;28;20042;-61
2023/12/22 05:51:13;;;;;;;11.05;10.55;;;;;;;;;;5071493;28;20028;-60
2023/12/22 05:53:39;;;;;;;11.70;11.13;;;;;;;;;;5074447;28;20051;-61
2023/12/22 05:56:04;;;;;;;12.15;11.55;;;;;;;;;;5068676;28;20468;-59
2023/12/22 05:58:29;;;;;;;11.98;11.40;;;;;;;;;;5068829;28;20035;-60
2023/12/22 06:00:55;;;;;;;11.48;10.98;;;;;;;;;;5065232;28;20044;-57
2023/12/22 06:03:20;;;;;;;11.75;11.15;;;;;;;;;;5069567;28;20064;-62
2023/12/22 06:05:45;;;;;;;11.20;10.70;;;;;;;;;;5066925;28;20032;-60
2023/12/22 06:08:11;;;;;;;11.20;10.70;;;;;;;;;;5069376;28;20024;-61
2023/12/22 06:10:36;;;;;;;12.02;11.43;;;;;;;;;;5067210;28;20031;-61
2023/12/22 06:13:03;;;;;;;12.40;11.80;;;;;;;;;;5067143;28;20139;-61
2023/12/22 06:15:29;;;;;;;12.93;12.23;;;;;;;;;;5064335;28;20055;-60
2023/12/22 06:17:54;;;;;;;12.25;11.65;;;;;;;;;;5069773;28;20008;-59
2023/12/22 06:20:19;;;;;;;12.20;11.60;;;;;;;;;;5068094;28;20032;-62
2023/12/22 06:22:45;;;;;;;13.10;12.40;;;;;;;;;;5071814;28;20025;-59
2023/12/22 06:25:10;;;;;;;11.45;10.95;;;;;;;;;;5066793;28;20387;-61
2023/12/22 06:27:37;;;;;;;13.55;12.85;;;;;;;;;;5063274;28;20806;-60
2023/12/22 06:30:03;;;;;;;11.20;10.70;;;;;;;;;;5071298;28;20034;-61
2023/12/22 06:32:28;;;;;;;11.25;10.75;;;;;;;;;;5067584;28;20059;-60
2023/12/22 06:34:53;;;;;;;11.88;11.30;;;;;;;;;;5066941;28;20052;-62
2023/12/22 06:37:19;;;;;;;12.32;11.73;;;;;;;;;;5066603;28;20530;-61
2023/12/22 06:39:44;;;;;;;12.10;11.50;;;;;;;;;;5067815;28;20021;-61
2023/12/22 06:42:13;;;;;;;12.73;12.13;;;;;;;;;;5073971;28;20051;-61
2023/12/22 06:44:41;;;;;;;12.35;11.75;;;;;;;;;;5067886;28;20024;-62
2023/12/22 06:47:06;;;;;;;13.10;12.40;;;;;;;;;;5066569;28;20031;-62
2023/12/22 06:49:31;;;;;;;12.40;11.80;;;;;;;;;;5067003;28;20050;-60
2023/12/22 06:51:57;;;;;;;13.43;12.73;;;;;;;;;;5062480;28;20036;-62
2023/12/22 06:54:22;;;;;;;12.02;11.43;;;;;;;;;;5071075;28;20029;-61
2023/12/22 06:56:47;;;;;;;12.60;12.00;;;;;;;;;;5068368;28;20028;-61
2023/12/22 06:59:13;;;;;;;12.63;12.02;;;;;;;;;;5066097;28;20500;-61
2023/12/22 07:01:38;;;;;;;12.00;11.40;;;;;;;;;;5065487;28;20490;-63
2023/12/22 07:04:04;;;;;;;13.05;12.35;;;;;;;;;;5064549;28;20052;-60
2023/12/22 07:06:31;;;;;;;12.02;11.43;;;;;;;;;;5064613;28;20024;-60
2023/12/22 07:09:11;;;;;;;12.00;11.40;;;;;;;;;;5059740;28;20012;-59
2023/12/22 07:11:40;;;;;;;12.55;11.95;;;;;;;;;;5059727;28;20028;-61
2023/12/22 07:14:05;;;;;;;12.07;11.48;;;;;;;;;;5061722;28;20119;-60
2023/12/22 07:16:32;;;;;;;12.32;11.73;;;;;;;;;;5063175;28;20105;-60
2023/12/22 07:18:58;;;;;;;12.30;11.70;;;;;;;;;;5056708;28;20100;-60
2023/12/22 07:21:23;;;;;;;12.80;12.20;;;;;;;;;;5059919;28;21013;-60
2023/12/22 07:23:48;;;;;;;12.40;11.80;;;;;;;;;;5064397;28;20021;-60
2023/12/22 07:26:14;;;;;;;12.77;12.18;;;;;;;;;;5063629;28;20028;-60
2023/12/22 07:28:39;;;;;;;13.40;12.70;;;;;;;;;;5059999;28;20017;-61
2023/12/22 07:31:05;;;;;;;12.80;12.20;;;;;;;;;;5061411;28;20448;-61
2023/12/22 07:33:30;;;;;;;12.07;11.48;;;;;;;;;;5059676;28;20423;-60
2023/12/22 07:35:56;;;;;;;13.55;12.85;;;;;;;;;;5062536;28;20017;-61
2023/12/22 07:38:21;;;;;;;12.55;11.95;;;;;;;;;;5060244;28;20096;-63
2023/12/22 07:40:46;;;;;;;12.90;12.30;;;;;;;;;;5054873;28;20460;-59
2023/12/22 07:43:13;;;;;;;13.50;12.80;;;;;;;;;;5063028;28;20685;-60
2023/12/22 07:45:38;;;;;;;12.60;12.00;;;;;;;;;;5064083;28;20024;-60
2023/12/22 07:48:04;;;;;;;13.40;12.70;;;;;;;;;;5059784;28;20029;-59
2023/12/22 07:50:29;;;;;;;12.68;12.07;;;;;;;;;;5060198;28;20072;-60
2023/12/22 07:52:54;;;;;;;12.45;11.85;;;;;;;;;;5058551;28;20418;-61
2023/12/22 07:55:20;;;;;;;12.63;12.02;;;;;;;;;;5060366;28;20032;-60
2023/12/22 07:57:45;;;;;;;12.80;12.20;;;;;;;;;;5063762;28;20476;-61
2023/12/22 08:00:11;;;;;;;12.60;12.00;;;;;;;;;;5057473;28;20387;-61
2023/12/22 08:02:36;;;;;;;12.60;12.00;;;;;;;;;;5060206;28;20023;-61
2023/12/22 08:05:02;;;;;;;14.77;13.98;;;;;;;;;;5054781;28;20035;-62
2023/12/22 08:07:27;;;;;;;14.52;13.73;;;;;;;;;;5051646;28;20030;-63
2023/12/22 08:09:53;;;;;;;13.27;12.57;;;;;;;;;;5057445;28;20032;-64
2023/12/22 08:12:19;;;;;;;13.30;12.60;;;;;;;;;;5061599;28;20020;-64
2023/12/22 08:14:44;;;;;;;13.23;12.52;;;;;;;;;;5061755;28;20032;-62
2023/12/22 08:17:10;;;;;;;14.70;13.90;;;;;;;;;;5059292;28;20064;-63
2023/12/22 08:19:36;;;;;;;13.75;13.05;;;;;;;;;;5056314;28;20025;-63
2023/12/22 08:22:02;;;;;;;13.30;12.60;;;;;;;;;;5053706;28;20028;-61
2023/12/22 08:24:27;;;;;;;13.57;12.88;;;;;;;;;;5056249;28;20029;-65
2023/12/22 08:26:52;;;;;;;13.10;12.48;;;;;;;;;;5060486;28;20651;-64
2023/12/22 08:29:19;;;;;;;14.05;13.35;;;;;;;;;;5060757;28;20403;-63
2023/12/22 08:31:44;;;;;;;12.90;12.30;;;;;;;;;;5061132;28;20467;-61
2023/12/22 08:34:10;;;;;;;14.07;13.38;;;;;;;;;;5063749;28;20025;-62
2023/12/22 08:36:35;;;;;;;12.98;12.38;;;;;;;;;;5065510;28;20017;-66
2023/12/22 08:39:00;;;;;;;11.98;11.40;;;;;;;;;;5064178;28;20055;-62
2023/12/22 08:41:26;;;;;;;12.65;12.05;;;;;;;;;;5069789;28;20025;-62
2023/12/22 08:43:52;;;;;;;13.48;12.77;;;;;;;;;;5067929;28;20029;-61
2023/12/22 08:46:18;;;;;;;12.23;11.63;;;;;;;;;;5058611;28;20029;-62
2023/12/22 08:48:43;;;;;;;15.23;14.43;;;;;;;;;;5060044;28;20041;-62
2023/12/22 08:51:09;;;;;;;12.48;11.88;;;;;;;;;;5059746;28;20032;-60
2023/12/22 08:53:37;;;;;;;12.80;12.20;;;;;;;;;;5065523;28;20048;-61
2023/12/22 08:56:02;;;;;;;13.20;12.55;;;;;;;;;;5065280;28;20365;-70
2023/12/22 08:58:28;;;;;;;15.10;14.30;;;;;;;;;;5059989;28;20024;-63
2023/12/22 09:00:54;;;;;;;13.50;12.80;;;;;;;;;;5065951;28;20115;-63
2023/12/22 09:03:19;;;;;;;14.02;13.32;;;;;;;;;;5065460;28;20488;-62
2023/12/22 09:05:44;;;;;;;13.80;13.10;;;;;;;;;;5060511;28;20046;-65
2023/12/22 09:08:10;;;;;;;13.90;13.20;;;;;;;;;;5062490;28;20472;-63
2023/12/22 09:10:35;;;;;;;14.00;13.30;;;;;;;;;;5056173;28;20090;-63
2023/12/22 09:13:01;;;;;;;15.02;14.23;;;;;;;;;;5062571;28;20139;-62
2023/12/22 09:15:27;;;;;;;14.18;13.48;;;;;;;;;;5065132;28;20041;-63
2023/12/22 09:17:54;;;;;;;14.25;13.55;;;;;;;;;;5064186;28;20110;-64
2023/12/22 09:20:19;;;;;;;14.50;13.70;;;;;;;;;;5067476;28;20023;-64
2023/12/22 09:22:44;;;;;;;13.82;13.13;;;;;;;;;;5060597;28;20028;-63
2023/12/22 09:25:10;;;;;;;13.70;13.00;;;;;;;;;;5066259;28;20024;-64
2023/12/22 09:27:35;;;;;;;13.93;13.23;;;;;;;;;;5062194;28;20032;-64
2023/12/22 09:30:00;;;;;;;14.43;13.63;;;;;;;;;;5067997;28;20025;-63
2023/12/22 09:32:26;;;;;;;13.52;12.82;;;;;;;;;;5064057;28;20203;-63
2023/12/22 09:34:52;;;;;;;13.75;13.05;;;;;;;;;;5057373;28;20031;-63
2023/12/22 09:37:17;;;;;;;13.55;12.85;;;;;;;;;;5059239;28;20156;-63
2023/12/22 09:39:42;;;;;;;14.18;13.40;;;;;;;;;;5054515;28;20035;-64
2023/12/22 09:42:09;;;;;;;13.45;12.75;;;;;;;;;;5054216;28;20064;-63
2023/12/22 09:44:35;;;;;;;15.07;14.27;;;;;;;;;;5056948;28;20033;-63
2023/12/22 09:47:03;;;;;;;13.77;13.07;;;;;;;;;;5066021;28;20024;-63
2023/12/22 09:49:28;;;;;;;13.80;13.10;;;;;;;;;;5067452;28;20028;-62
2023/12/22 09:51:55;;;;;;;14.23;13.48;;;;;;;;;;5061307;28;20381;-65
2023/12/22 09:54:20;;;;;;;13.35;12.65;;;;;;;;;;5063688;28;20021;-64
2023/12/22 09:56:46;;;;;;;14.05;13.35;;;;;;;;;;5066604;28;20016;-64
2023/12/22 09:59:12;;;;;;;13.65;12.95;;;;;;;;;;5062382;28;20051;-63
2023/12/22 10:01:47;;;;;;;13.32;12.63;;;;;;;;;;5058051;28;20066;-63
2023/12/22 10:04:13;;;;;;;14.25;13.52;;;;;;;;;;5062671;28;20094;-65
2023/12/22 10:06:39;;;;;;;13.32;12.63;;;;;;;;;;5057841;28;20484;-62
2023/12/22 10:09:06;;;;;;;12.85;12.25;;;;;;;;;;5061819;28;20017;-62
2023/12/22 10:11:32;;;;;;;13.75;13.05;;;;;;;;;;5063912;28;20119;-64
2023/12/22 10:13:59;;;;;;;14.10;13.40;;;;;;;;;;5064272;28;20103;-64
2023/12/22 10:16:24;;;;;;;13.55;12.85;;;;;;;;;;5067257;28;20551;-64
2023/12/22 10:18:51;;;;;;;14.07;13.38;;;;;;;;;;5060848;28;20027;-63
2023/12/22 10:21:16;;;;;;;14.63;13.82;;;;;;;;;;5052672;28;20028;-63
2023/12/22 10:23:41;;;;;;;13.88;13.18;;;;;;;;;;5047897;28;20075;-64
2023/12/22 10:26:08;;;;;;;14.73;13.93;;;;;;;;;;5052234;28;20033;-63
2023/12/22 10:28:33;;;;;;;15.73;14.82;;;;;;;;;;5051121;28;20083;-64
2023/12/22 10:31:03;;;;;;;14.88;14.07;;;;;;;;;;5051130;28;20028;-63
2023/12/22 10:33:29;;;;;;;14.68;13.88;;;;;;;;;;5053893;28;20043;-65
2023/12/22 10:35:55;;;;;;;14.70;13.90;;;;;;;;;;5051294;28;20023;-63
2023/12/22 10:38:20;;;;;;;14.20;13.50;;;;;;;;;;5053751;28;20032;-64
2023/12/22 10:40:46;;;;;;;15.32;14.52;;;;;;;;;;5052711;28;20182;-63
2023/12/22 10:43:12;;;;;;;14.63;13.82;;;;;;;;;;5056989;28;20056;-63
2023/12/22 10:45:39;;;;;;;14.63;13.88;;;;;;;;;;5050929;28;20082;-63
2023/12/22 10:48:05;;;;;;;13.93;13.23;;;;;;;;;;5050755;28;20165;-61
2023/12/22 10:50:30;;;;;;;14.63;13.82;;;;;;;;;;5055217;28;20895;-63
2023/12/22 10:52:56;;;;;;;16.33;15.43;;;;;;;;;;5050995;28;20512;-63
2023/12/22 10:55:21;;;;;;;15.18;14.38;;;;;;;;;;5053000;28;20012;-62
2023/12/22 10:57:47;;;;;;;14.85;14.05;;;;;;;;;;5050293;28;20044;-63
2023/12/22 11:00:13;;;;;;;15.13;14.32;;;;;;;;;;5052573;28;20036;-64
2023/12/22 11:02:41;;;;;;;14.60;13.80;;;;;;;;;;5047527;28;20032;-63
2023/12/22 11:05:10;;;;;;;15.02;14.23;;;;;;;;;;5049567;28;20039;-64
2023/12/22 11:07:37;;;;;;;14.85;14.05;;;;;;;;;;5050623;28;20039;-65
2023/12/22 11:10:03;;;;;;;15.90;15.00;;;;;;;;;;5050834;28;20098;-63
2023/12/22 11:12:31;;;;;;;13.80;13.10;;;;;;;;;;5058812;28;20383;-62
2023/12/22 11:14:57;;;;;;;13.98;13.27;;;;;;;;;;5059972;28;20020;-63
2023/12/22 11:17:23;;;;;;;13.85;13.15;;;;;;;;;;5054304;28;20052;-63
2023/12/22 11:19:55;;;;;;;14.50;13.75;;;;;;;;;;5057998;28;20012;-63
2023/12/22 11:22:21;;;;;;;13.15;12.55;;;;;;;;;;5062824;28;20029;-63
2023/12/22 11:24:48;;;;;;;14.43;13.73;;;;;;;;;;5058105;28;20448;-62
2023/12/22 11:27:16;;;;;;;14.15;13.45;;;;;;;;;;5056585;28;20040;-62
2023/12/22 11:29:42;;;;;;;14.95;14.15;;;;;;;;;;5053568;28;20021;-62
2023/12/22 11:32:07;;;;;;;14.80;14.02;;;;;;;;;;5053681;28;20039;-63
2023/12/22 11:34:36;;;;;;;14.50;13.77;;;;;;;;;;5052350;28;20822;-62
2023/12/22 11:37:03;;;;;;;15.38;14.57;;;;;;;;;;5053420;28;20040;-63
2023/12/22 11:39:29;;;;;;;15.82;14.98;;;;;;;;;;5056882;28;20029;-63
2023/12/22 11:41:55;;;;;;;14.48;13.77;;;;;;;;;;5056812;28;20047;-63
2023/12/22 11:44:21;;;;;;;14.50;13.80;;;;;;;;;;5057034;28;20484;-63
2023/12/22 11:46:47;;;;;;;13.85;13.15;;;;;;;;;;5064280;28;20029;-63
2023/12/22 11:49:12;;;;;;;14.05;13.35;;;;;;;;;;5058106;28;20016;-63
2023/12/22 11:51:38;;;;;;;13.95;13.25;;;;;;;;;;5067966;28;20029;-63
2023/12/22 11:54:24;;;;;;;14.88;14.07;;;;;;;;;;5064215;28;20399;-64
2023/12/22 11:56:50;;;;;;;14.85;14.05;;;;;;;;;;5060533;28;20025;-64
2023/12/22 11:59:16;;;;;;;14.05;13.35;;;;;;;;;;5056957;28;20107;-64
2023/12/22 12:01:42;;;;;;;14.90;14.10;;;;;;;;;;5063527;28;20028;-63
2023/12/22 12:04:08;;;;;;;14.07;13.38;;;;;;;;;;5062031;28;20026;-64
2023/12/22 12:06:33;;;;;;;15.07;14.27;;;;;;;;;;5063825;28;20020;-64
2023/12/22 12:09:08;;;;;;;14.40;13.60;;;;;;;;;;5065149;28;20491;-63
2023/12/22 12:12:02;;;;;;;12.80;12.20;;;;;;;;;;5061833;28;20020;-63
2023/12/22 12:14:37;;;;;;;13.88;13.18;;;;;;;;;;5047538;28;20068;-63
2023/12/22 12:17:09;;;;;;;14.75;13.95;;;;;;;;;;5062680;28;20083;-65
2023/12/22 12:19:35;;;;;;;13.88;13.18;;;;;;;;;;5066037;28;20032;-64
2023/12/22 12:22:01;;;;;;;14.15;13.35;;;;;;;;;;5062086;28;20533;-63
2023/12/22 12:24:26;;;;;;;13.90;13.18;;;;;;;;;;5068698;28;20032;-63
2023/12/22 12:26:52;;;;;;;15.20;14.30;;;;;;;;;;5063798;28;20480;-64
2023/12/22 12:29:17;;;;;;;13.95;13.23;;;;;;;;;;5063665;28;20471;-62
2023/12/22 12:31:43;;;;;;;12.85;12.23;;;;;;;;;;5067713;28;20028;-64
2023/12/22 12:34:10;;;;;;;13.82;13.10;;;;;;;;;;5065188;28;20128;-64
2023/12/22 12:36:36;;;;;;;13.07;12.38;;;;;;;;;;5066254;28;20067;-64
2023/12/22 12:39:09;;;;;;;14.20;13.40;;;;;;;;;;5069254;28;20048;-64
2023/12/22 12:41:40;;;;;;;13.93;13.13;;;;;;;;;;5064832;28;20456;-64
2023/12/22 12:44:06;;;;;;;13.63;12.93;;;;;;;;;;5064810;28;20051;-62
2023/12/22 12:46:32;;;;;;;14.82;14.00;;;;;;;;;;5059497;28;20023;-63
2023/12/22 12:49:07;;;;;;;12.38;11.77;;;;;;;;;;5062349;28;20035;-64
2023/12/22 12:51:39;;;;;;;13.55;12.85;;;;;;;;;;5068267;28;20028;-64
2023/12/22 12:54:05;;;;;;;14.43;13.63;;;;;;;;;;5066348;28;20024;-63
2023/12/22 12:56:40;;;;;;;13.93;13.13;;;;;;;;;;5059874;28;20078;-63
2023/12/22 12:59:10;;;;;;;13.65;12.90;;;;;;;;;;5062168;28;20047;-65
2023/12/22 13:01:41;;;;;;;12.38;11.77;;;;;;;;;;5069246;28;20078;-64
2023/12/22 13:04:07;;;;;;;13.18;12.48;;;;;;;;;;5066106;28;20025;-62
2023/12/22 13:06:33;;;;;;;16.20;15.20;;;;;;;;;;5064156;28;20039;-64
2023/12/22 13:08:58;;;;;;;13.35;12.65;;;;;;;;;;5060428;28;20714;-65
2023/12/22 13:11:27;;;;;;;13.23;12.52;;;;;;;;;;5062759;28;20056;-65
2023/12/22 13:13:52;;;;;;;13.30;12.60;;;;;;;;;;5057177;28;20060;-64
2023/12/22 13:16:19;;;;;;;13.20;12.50;;;;;;;;;;5062730;28;20129;-63
2023/12/22 13:18:44;;;;;;;12.38;11.77;;;;;;;;;;5061276;28;20287;-65
2023/12/22 13:21:10;;;;;;;14.05;13.25;;;;;;;;;;5061635;28;20368;-64
2023/12/22 13:23:35;;;;;;;13.27;12.57;;;;;;;;;;5068436;28;20028;-66
2023/12/22 13:26:01;;;;;;;13.75;12.98;;;;;;;;;;5065139;28;20032;-63
2023/12/22 13:28:27;;;;;;;12.98;12.27;;;;;;;;;;5068500;28;20025;-64
2023/12/22 13:30:52;;;;;;;13.20;12.50;;;;;;;;;;5061100;28;20052;-65
2023/12/22 13:33:18;;;;;;;13.13;12.43;;;;;;;;;;5063010;28;20515;-64
2023/12/22 13:35:43;;;;;;;14.07;13.27;;;;;;;;;;5066201;28;20025;-63
2023/12/22 13:38:09;;;;;;;13.40;12.70;;;;;;;;;;5059897;28;20093;-62
2023/12/22 13:40:35;;;;;;;13.35;12.65;;;;;;;;;;5067277;28;20076;-64
2023/12/22 13:43:02;;;;;;;13.23;12.52;;;;;;;;;;5062555;28;20029;-65
2023/12/22 13:45:27;;;;;;;13.75;13.00;;;;;;;;;;5058913;28;20390;-64
2023/12/22 13:47:53;;;;;;;12.40;11.80;;;;;;;;;;5068089;28;20033;-63
2023/12/22 13:50:19;;;;;;;13.45;12.75;;;;;;;;;;5068135;28;20064;-63
2023/12/22 13:52:44;;;;;;;13.38;12.68;;;;;;;;;;5064229;28;20074;-64
2023/12/22 13:55:14;;;;;;;13.63;12.88;;;;;;;;;;5065744;28;20510;-62
2023/12/22 13:57:40;;;;;;;13.73;12.93;;;;;;;;;;5063888;28;20395;-64
2023/12/22 14:00:20;;;;;;;13.50;12.80;;;;;;;;;;5059827;28;20021;-63
2023/12/22 14:02:46;;;;;;;14.48;13.68;;;;;;;;;;5067693;28;20082;-65
2023/12/22 14:05:11;;;;;;;12.85;12.15;;;;;;;;;;5066886;28;20028;-63
2023/12/22 14:07:37;;;;;;;14.48;13.65;;;;;;;;;;5050774;28;20119;-63
2023/12/22 14:10:06;;;;;;;13.70;12.93;;;;;;;;;;5054519;28;20169;-63